Time;durP1;ratioP1;P1;durP2;ratioP2;P2;SDS_P1;SDS_P2;PMS_P1;PMS_P2;Temp;Humidity;BMP_temperature;BMP_pressure;BME280_temperature;BME280_humidity;BME280_pressure;Samples;Min_cycle;Max_cycle;Signal;HPM_P1;HPM_P2
2021/10/14 00:02:16;;;;;;;7.27;6.57;;;9.00;1.00;;;;;;5101907;28;20204;-58
2021/10/14 00:04:41;;;;;;;9.70;6.97;;;9.10;1.00;;;;;;5084308;28;20280;-58
2021/10/14 00:07:07;;;;;;;8.67;6.80;;;9.20;1.00;;;;;;5101253;28;20848;-58
2021/10/14 00:09:32;;;;;;;7.57;6.70;;;9.20;1.00;;;;;;5102227;28;20208;-59
2021/10/14 00:11:58;;;;;;;8.33;5.97;;;9.20;1.00;;;;;;5102272;28;20182;-58
2021/10/14 00:14:23;;;;;;;7.73;6.30;;;9.20;1.00;;;;;;5083641;28;20277;-58
2021/10/14 00:16:49;;;;;;;7.40;6.30;;;9.20;1.00;;;;;;5102507;28;20234;-58
2021/10/14 00:19:15;;;;;;;6.37;5.60;;;9.10;1.00;;;;;;5103002;28;20642;-59
2021/10/14 00:21:41;;;;;;;7.13;6.43;;;9.10;1.00;;;;;;5091277;28;20187;-58
2021/10/14 00:24:06;;;;;;;6.33;5.70;;;9.10;1.00;;;;;;5096490;28;20451;-58
2021/10/14 00:26:32;;;;;;;9.33;5.63;;;9.20;1.00;;;;;;5101213;28;20206;-57
2021/10/14 00:28:58;;;;;;;7.20;6.00;;;9.20;1.00;;;;;;5101681;28;20186;-58
2021/10/14 00:31:23;;;;;;;7.77;6.30;;;9.20;1.00;;;;;;5101033;28;21361;-59
2021/10/14 00:33:49;;;;;;;6.30;5.73;;;9.10;1.00;;;;;;5101713;28;20487;-58
2021/10/14 00:36:15;;;;;;;6.60;6.00;;;9.10;1.00;;;;;;5102424;28;21639;-59
2021/10/14 00:38:40;;;;;;;6.87;6.30;;;9.10;1.00;;;;;;5101340;28;20277;-58
2021/10/14 00:41:06;;;;;;;8.43;6.07;;;9.00;1.00;;;;;;5101855;28;20186;-58
2021/10/14 00:43:31;;;;;;;6.87;6.17;;;9.00;1.00;;;;;;5105056;28;20191;-58
2021/10/14 00:45:57;;;;;;;8.43;6.43;;;9.10;1.00;;;;;;5106331;28;20251;-58
2021/10/14 00:48:22;;;;;;;7.33;6.47;;;9.10;1.00;;;;;;5099932;28;20675;-58
2021/10/14 00:50:48;;;;;;;7.57;6.87;;;9.10;1.00;;;;;;5101226;28;20189;-58
2021/10/14 00:53:13;;;;;;;7.67;7.07;;;9.10;1.00;;;;;;5101898;28;20528;-58
2021/10/14 00:55:39;;;;;;;7.67;6.70;;;9.20;1.00;;;;;;5100926;28;20186;-58
2021/10/14 00:58:05;;;;;;;7.20;6.50;;;9.20;1.00;;;;;;5100187;28;20186;-58
2021/10/14 01:00:30;;;;;;;6.57;5.97;;;9.20;1.00;;;;;;5101602;28;20647;-58
2021/10/14 01:02:56;;;;;;;7.50;6.77;;;9.20;1.00;;;;;;5100884;28;20715;-57
2021/10/14 01:05:21;;;;;;;7.60;6.47;;;9.30;1.00;;;;;;5103429;28;20186;-58
2021/10/14 01:07:47;;;;;;;6.30;5.63;;;9.30;1.00;;;;;;5091465;28;20298;-59
2021/10/14 01:10:13;;;;;;;8.70;7.00;;;9.30;1.00;;;;;;5091190;28;20183;-58
2021/10/14 01:12:38;;;;;;;7.30;6.70;;;9.30;1.00;;;;;;5090108;28;20692;-58
2021/10/14 01:15:19;;;;;;;6.73;6.13;;;9.20;1.00;;;;;;5097688;28;21002;-58
2021/10/14 01:17:45;;;;;;;7.87;6.37;;;9.20;1.00;;;;;;5101390;28;20978;-58
2021/10/14 01:20:11;;;;;;;7.80;6.47;;;9.20;1.00;;;;;;5102156;28;20440;-59
2021/10/14 01:22:37;;;;;;;6.50;5.90;;;9.20;1.00;;;;;;5101923;28;20190;-58
2021/10/14 01:25:04;;;;;;;6.27;5.77;;;9.20;1.00;;;;;;5100866;28;20484;-59
2021/10/14 01:27:29;;;;;;;7.20;6.50;;;9.20;1.00;;;;;;5100591;28;20586;-58
2021/10/14 01:29:55;;;;;;;6.63;6.03;;;9.30;1.00;;;;;;5101219;28;20444;-59
2021/10/14 01:32:20;;;;;;;7.23;6.53;;;9.30;1.00;;;;;;5101103;28;20189;-58
2021/10/14 01:34:46;;;;;;;7.30;6.57;;;9.30;1.00;;;;;;5102364;28;20190;-58
2021/10/14 01:37:11;;;;;;;6.63;6.03;;;9.30;1.00;;;;;;5105735;28;20195;-58
2021/10/14 01:39:37;;;;;;;7.13;6.27;;;9.30;1.00;;;;;;5105695;28;20273;-58
2021/10/14 01:42:03;;;;;;;6.47;5.97;;;9.30;1.00;;;;;;5103691;28;20191;-58
2021/10/14 01:44:28;;;;;;;6.30;5.70;;;9.40;1.00;;;;;;5105209;28;20233;-57
2021/10/14 01:46:54;;;;;;;6.20;5.60;;;9.40;1.00;;;;;;5104683;28;20209;-58
2021/10/14 01:49:19;;;;;;;7.43;5.53;;;9.30;1.00;;;;;;5105698;28;21856;-57
2021/10/14 01:51:45;;;;;;;6.47;5.93;;;9.30;1.00;;;;;;5104429;28;20282;-57
2021/10/14 01:54:10;;;;;;;7.10;6.40;;;9.30;1.00;;;;;;5104559;28;20655;-57
2021/10/14 01:56:36;;;;;;;6.60;6.00;;;9.30;1.00;;;;;;5103904;28;20194;-58
2021/10/14 01:59:02;;;;;;;7.83;6.20;;;9.20;1.00;;;;;;5104043;28;20194;-58
2021/10/14 02:01:27;;;;;;;6.53;5.80;;;9.20;1.00;;;;;;5104974;28;20799;-58
2021/10/14 02:03:53;;;;;;;7.20;6.33;;;9.20;1.00;;;;;;5104319;28;20266;-57
2021/10/14 02:06:18;;;;;;;6.93;6.23;;;9.20;1.00;;;;;;5105200;28;20194;-58
2021/10/14 02:08:44;;;;;;;6.33;5.50;;;9.20;1.00;;;;;;5104257;28;20653;-58
2021/10/14 02:11:09;;;;;;;6.70;6.00;;;9.10;1.00;;;;;;5101961;28;20198;-58
2021/10/14 02:13:36;;;;;;;8.30;6.73;;;9.20;1.00;;;;;;5105125;28;20987;-58
2021/10/14 02:16:02;;;;;;;7.03;6.43;;;9.30;1.00;;;;;;5104933;28;20201;-58
2021/10/14 02:18:28;;;;;;;10.60;6.47;;;9.40;1.00;;;;;;5105155;28;20441;-57
2021/10/14 02:20:53;;;;;;;6.80;6.10;;;9.40;1.00;;;;;;5112351;28;20189;-57
2021/10/14 02:23:19;;;;;;;5.97;5.40;;;9.40;1.00;;;;;;5104652;28;20178;-57
2021/10/14 02:25:44;;;;;;;7.00;6.30;;;9.40;1.00;;;;;;5102018;28;20324;-58
2021/10/14 02:28:10;;;;;;;7.10;5.70;;;9.40;1.00;;;;;;5105052;28;20199;-58
2021/10/14 02:30:36;;;;;;;6.17;5.57;;;9.40;1.00;;;;;;5104601;28;20197;-58
2021/10/14 02:33:02;;;;;;;6.33;5.73;;;9.30;1.00;;;;;;5103149;28;20183;-58
2021/10/14 02:35:27;;;;;;;6.63;6.03;;;9.30;1.00;;;;;;5104384;28;20447;-58
2021/10/14 02:37:53;;;;;;;6.27;5.57;;;9.30;1.00;;;;;;5104358;28;20640;-57
2021/10/14 02:40:18;;;;;;;6.43;5.83;;;9.80;1.00;;;;;;5104408;28;20187;-59
2021/10/14 02:42:44;;;;;;;7.70;6.90;;;9.30;1.00;;;;;;5104524;28;20705;-58
2021/10/14 02:45:09;;;;;;;8.10;5.90;;;9.30;1.00;;;;;;5107876;28;20779;-58
2021/10/14 02:47:35;;;;;;;6.53;5.93;;;9.30;1.00;;;;;;5102578;28;20299;-57
2021/10/14 02:50:01;;;;;;;7.23;6.20;;;9.30;1.00;;;;;;5103985;28;20316;-57
2021/10/14 02:52:26;;;;;;;8.63;5.97;;;9.40;1.00;;;;;;5104197;28;20654;-58
2021/10/14 02:54:52;;;;;;;6.67;6.00;;;9.40;1.00;;;;;;5103890;28;20200;-57
2021/10/14 02:57:17;;;;;;;7.07;6.37;;;9.40;1.00;;;;;;5103341;28;20202;-59
2021/10/14 02:59:43;;;;;;;7.90;5.83;;;9.40;1.00;;;;;;5103087;28;20217;-58
2021/10/14 03:02:08;;;;;;;7.73;6.13;;;9.40;1.00;;;;;;5103117;28;20201;-57
2021/10/14 03:04:34;;;;;;;6.90;5.90;;;9.30;1.00;;;;;;5103918;28;20277;-58
2021/10/14 03:06:59;;;;;;;6.50;5.90;;;9.30;1.00;;;;;;5082909;28;20223;-58
2021/10/14 03:09:25;;;;;;;6.53;5.43;;;9.40;1.00;;;;;;5099957;28;20258;-59
2021/10/14 03:11:50;;;;;;;8.63;7.70;;;9.40;1.00;;;;;;5102914;28;20573;-58
2021/10/14 03:14:16;;;;;;;6.30;5.70;;;9.40;1.00;;;;;;5102737;28;20186;-59
2021/10/14 03:16:41;;;;;;;7.80;5.97;;;9.40;1.00;;;;;;5103088;28;20190;-59
2021/10/14 03:19:07;;;;;;;6.87;6.17;;;9.40;1.00;;;;;;5103383;28;20559;-58
2021/10/14 03:21:32;;;;;;;7.43;5.60;;;9.50;1.00;;;;;;5102586;28;20218;-58
2021/10/14 03:23:58;;;;;;;5.87;5.37;;;9.40;1.00;;;;;;5102349;28;20217;-57
2021/10/14 03:26:23;;;;;;;4.97;4.50;;;9.40;1.00;;;;;;5084951;28;20206;-57
2021/10/14 03:28:50;;;;;;;8.70;6.80;;;9.50;1.00;;;;;;5101565;28;20622;-58
2021/10/14 03:31:16;;;;;;;7.27;5.47;;;9.50;1.00;;;;;;5102901;28;20265;-58
2021/10/14 03:33:41;;;;;;;7.50;6.80;;;9.50;1.00;;;;;;5103353;28;20540;-58
2021/10/14 03:36:07;;;;;;;6.03;5.47;;;9.50;1.00;;;;;;5103679;28;20182;-57
2021/10/14 03:38:32;;;;;;;9.30;6.47;;;9.50;1.00;;;;;;5101879;28;20637;-58
2021/10/14 03:40:58;;;;;;;6.50;5.70;;;9.50;1.00;;;;;;5109932;28;20187;-57
2021/10/14 03:43:23;;;;;;;6.20;5.70;;;9.50;1.00;;;;;;5101489;28;20183;-58
2021/10/14 03:45:49;;;;;;;8.30;6.13;;;9.50;1.00;;;;;;5100843;28;20730;-59
2021/10/14 03:48:14;;;;;;;8.50;5.80;;;9.50;1.00;;;;;;5102565;28;20213;-59
2021/10/14 03:50:40;;;;;;;6.97;6.17;;;9.50;1.00;;;;;;5103245;28;20191;-57
2021/10/14 03:53:06;;;;;;;6.80;5.70;;;9.50;1.00;;;;;;5101733;28;20187;-58
2021/10/14 03:55:31;;;;;;;7.50;5.77;;;9.50;1.00;;;;;;5102816;28;20182;-58
2021/10/14 03:57:57;;;;;;;7.87;6.53;;;9.60;1.00;;;;;;5084832;28;20198;-57
2021/10/14 04:00:23;;;;;;;6.90;6.07;;;9.40;1.00;;;;;;5101909;28;20668;-58
2021/10/14 04:02:48;;;;;;;7.17;6.47;;;9.50;1.00;;;;;;5102455;28;20191;-58
2021/10/14 04:05:14;;;;;;;6.50;5.90;;;9.50;1.00;;;;;;5102425;28;20986;-59
2021/10/14 04:07:39;;;;;;;8.03;6.20;;;9.50;1.00;;;;;;5102190;28;20568;-59
2021/10/14 04:10:06;;;;;;;8.50;6.57;;;9.60;1.00;;;;;;5101945;28;20194;-58
2021/10/14 04:12:32;;;;;;;7.97;6.57;;;9.60;1.00;;;;;;5102178;28;20212;-58
2021/10/14 04:14:57;;;;;;;8.43;7.43;;;9.60;1.00;;;;;;5100466;28;21180;-57
2021/10/14 04:17:23;;;;;;;7.43;6.27;;;9.60;1.00;;;;;;5103027;28;20179;-58
2021/10/14 04:19:48;;;;;;;7.63;6.47;;;9.60;1.00;;;;;;5101671;28;20187;-58
2021/10/14 04:22:15;;;;;;;9.13;6.43;;;9.60;1.00;;;;;;5101209;28;20289;-57
2021/10/14 04:24:41;;;;;;;7.27;6.60;;;9.60;1.00;;;;;;5102863;28;20261;-58
2021/10/14 04:27:07;;;;;;;6.73;6.13;;;9.60;1.00;;;;;;5101619;28;20563;-57
2021/10/14 04:29:32;;;;;;;9.67;6.30;;;9.60;1.00;;;;;;5097612;28;20187;-58
2021/10/14 04:31:59;;;;;;;7.53;6.80;;;9.60;1.00;;;;;;5102844;28;20182;-58
2021/10/14 04:34:24;;;;;;;9.10;7.10;;;9.60;1.00;;;;;;5101792;28;20577;-58
2021/10/14 04:36:50;;;;;;;8.93;7.20;;;9.60;1.00;;;;;;5101883;28;20419;-58
2021/10/14 04:39:16;;;;;;;7.13;6.53;;;9.60;1.00;;;;;;5101571;28;20194;-58
2021/10/14 04:41:43;;;;;;;7.60;6.90;;;9.50;1.00;;;;;;5103372;28;20243;-59
2021/10/14 04:44:08;;;;;;;7.90;6.50;;;9.50;1.00;;;;;;5100146;28;21339;-58
2021/10/14 04:46:34;;;;;;;7.20;6.50;;;9.60;1.00;;;;;;5102295;28;20817;-59
2021/10/14 04:48:59;;;;;;;6.73;5.80;;;9.60;1.00;;;;;;5101440;28;20782;-58
2021/10/14 04:51:25;;;;;;;8.17;6.80;;;9.60;1.00;;;;;;5103809;28;20271;-58
2021/10/14 04:53:50;;;;;;;7.23;6.50;;;9.60;1.00;;;;;;5086485;28;20236;-59
2021/10/14 04:56:16;;;;;;;7.30;6.60;;;9.60;1.00;;;;;;5100814;28;20183;-59
2021/10/14 04:58:41;;;;;;;6.97;6.30;;;9.60;1.00;;;;;;5101639;28;20196;-59
2021/10/14 05:01:07;;;;;;;8.90;7.30;;;9.70;1.00;;;;;;5099820;28;20349;-63
2021/10/14 05:03:32;;;;;;;8.03;7.23;;;9.70;1.00;;;;;;5096793;28;20413;-62
2021/10/14 05:05:58;;;;;;;12.23;8.03;;;9.60;1.00;;;;;;5097639;28;20189;-59
2021/10/14 05:08:23;;;;;;;7.90;7.10;;;9.70;1.00;;;;;;5098428;28;20308;-59
2021/10/14 05:10:49;;;;;;;9.60;7.00;;;9.60;1.00;;;;;;5066191;28;20194;-58
2021/10/14 05:13:15;;;;;;;8.90;6.90;;;9.60;1.00;;;;;;5092439;28;20181;-58
2021/10/14 05:15:41;;;;;;;10.93;6.80;;;9.80;1.00;;;;;;5072099;28;20178;-58
2021/10/14 05:18:07;;;;;;;10.43;7.93;;;9.80;1.00;;;;;;5090283;28;20190;-58
2021/10/14 05:20:33;;;;;;;9.80;7.53;;;9.80;1.00;;;;;;5098877;28;20994;-57
2021/10/14 05:22:59;;;;;;;8.70;7.70;;;9.80;1.00;;;;;;5105902;28;20407;-57
2021/10/14 05:25:24;;;;;;;9.20;7.83;;;9.80;1.00;;;;;;5093658;28;20436;-58
2021/10/14 05:27:50;;;;;;;10.23;7.57;;;9.80;1.00;;;;;;5094105;28;20198;-59
2021/10/14 05:30:16;;;;;;;7.70;6.90;;;9.80;1.00;;;;;;5095897;28;20191;-57
2021/10/14 05:32:42;;;;;;;7.23;6.53;;;9.80;1.00;;;;;;5096487;28;20191;-58
2021/10/14 05:35:07;;;;;;;13.53;7.87;;;9.80;1.00;;;;;;5093769;28;20429;-58
2021/10/14 05:37:33;;;;;;;9.23;7.90;;;9.90;1.00;;;;;;5106358;28;20182;-58
2021/10/14 05:40:03;;;;;;;11.30;8.47;;;9.90;1.00;;;;;;5099626;28;20422;-58
2021/10/14 05:42:28;;;;;;;13.07;8.60;;;9.90;1.00;;;;;;5089718;28;20191;-60
2021/10/14 05:44:54;;;;;;;10.77;7.83;;;9.90;1.00;;;;;;5089520;28;20435;-58
2021/10/14 05:47:20;;;;;;;9.60;7.30;;;9.90;1.00;;;;;;5090623;28;20206;-59
2021/10/14 05:49:45;;;;;;;8.13;7.33;;;9.90;1.00;;;;;;5091315;28;20183;-58
2021/10/14 05:52:11;;;;;;;9.10;8.00;;;10.00;1.00;;;;;;5098975;28;20186;-59
2021/10/14 05:54:36;;;;;;;14.10;11.90;;;9.90;1.00;;;;;;5092969;28;20200;-58
2021/10/14 05:57:02;;;;;;;11.10;8.30;;;10.00;1.00;;;;;;5089943;28;20187;-60
2021/10/14 05:59:27;;;;;;;11.73;7.53;;;10.10;1.00;;;;;;5090212;28;20679;-59
2021/10/14 06:01:53;;;;;;;9.37;7.60;;;10.10;1.00;;;;;;5104177;28;20224;-59
2021/10/14 06:04:19;;;;;;;11.37;7.80;;;10.10;1.00;;;;;;5109460;28;20236;-60
2021/10/14 06:06:44;;;;;;;9.47;7.17;;;10.10;1.00;;;;;;5107199;28;20331;-57
2021/10/14 06:09:10;;;;;;;8.93;8.03;;;10.10;1.00;;;;;;5100342;28;20526;-60
2021/10/14 06:11:35;;;;;;;9.43;8.03;;;10.10;1.00;;;;;;5109285;28;20187;-60
2021/10/14 06:14:04;;;;;;;8.80;7.57;;;10.10;1.00;;;;;;5102378;28;20179;-59
2021/10/14 06:16:30;;;;;;;9.17;8.20;;;10.10;1.00;;;;;;5108439;28;20723;-60
2021/10/14 06:18:56;;;;;;;14.20;8.43;;;10.10;1.00;;;;;;5099625;28;20498;-60
2021/10/14 06:21:22;;;;;;;9.33;8.27;;;10.10;1.00;;;;;;5090549;28;20175;-59
2021/10/14 06:23:47;;;;;;;12.13;9.47;;;10.20;1.00;;;;;;5100090;28;20447;-59
2021/10/14 06:26:13;;;;;;;10.33;9.07;;;10.10;1.00;;;;;;5113447;28;20186;-60
2021/10/14 06:28:39;;;;;;;13.43;9.97;;;10.20;1.00;;;;;;5112438;28;20191;-59
2021/10/14 06:31:05;;;;;;;11.23;8.40;;;10.20;1.00;;;;;;5105653;28;20228;-59
2021/10/14 06:33:31;;;;;;;10.20;9.13;;;10.30;1.00;;;;;;5101824;28;20469;-59
2021/10/14 06:35:56;;;;;;;10.90;9.60;;;10.20;1.00;;;;;;5078384;28;20191;-59
2021/10/14 06:38:22;;;;;;;9.77;8.87;;;10.30;1.00;;;;;;5096999;28;20492;-60
2021/10/14 06:40:47;;;;;;;11.30;8.77;;;10.30;1.00;;;;;;5113032;28;20651;-59
2021/10/14 06:43:13;;;;;;;12.13;9.07;;;10.30;1.00;;;;;;5099264;28;20191;-59
2021/10/14 06:45:39;;;;;;;16.00;8.93;;;10.30;1.00;;;;;;5092120;28;20501;-59
2021/10/14 06:48:05;;;;;;;11.07;8.87;;;10.30;1.00;;;;;;5104185;28;20218;-58
2021/10/14 06:50:31;;;;;;;12.27;9.30;;;10.40;1.00;;;;;;5111927;28;20200;-60
2021/10/14 06:52:57;;;;;;;9.83;8.83;;;10.30;1.00;;;;;;5110649;28;20521;-59
2021/10/14 06:55:23;;;;;;;8.30;7.50;;;10.30;1.00;;;;;;5092529;28;20520;-59
2021/10/14 06:57:48;;;;;;;10.77;8.23;;;10.30;1.00;;;;;;5105434;28;20535;-59
2021/10/14 07:00:14;;;;;;;8.50;7.40;;;10.40;1.00;;;;;;5110790;28;20194;-59
2021/10/14 07:02:40;;;;;;;9.83;8.77;;;10.30;1.00;;;;;;5110443;28;20869;-60
2021/10/14 07:05:06;;;;;;;10.33;7.63;;;10.40;1.00;;;;;;5100831;28;20531;-59
2021/10/14 07:07:31;;;;;;;10.60;9.00;;;10.40;1.00;;;;;;5107122;28;20232;-59
2021/10/14 07:09:57;;;;;;;9.90;7.50;;;10.40;1.00;;;;;;5098054;28;20448;-59
2021/10/14 07:12:28;;;;;;;9.47;8.57;;;10.40;15.90;;;;;;5091962;28;20587;-59
2021/10/14 07:14:54;;;;;;;10.43;8.37;;;10.60;22.10;;;;;;5098873;28;20187;-59
2021/10/14 07:17:20;;;;;;;10.20;8.13;;;10.60;19.20;;;;;;5092301;28;20441;-60
2021/10/14 07:19:46;;;;;;;10.97;9.20;;;10.70;21.50;;;;;;5092317;28;20460;-59
2021/10/14 07:22:11;;;;;;;15.03;8.73;;;10.70;19.50;;;;;;5094333;28;20412;-59
2021/10/14 07:24:38;;;;;;;13.97;8.70;;;10.70;21.00;;;;;;5094694;28;20207;-60
2021/10/14 07:27:05;;;;;;;9.37;8.33;;;10.70;21.60;;;;;;5092442;28;20575;-59
2021/10/14 07:29:32;;;;;;;9.73;7.70;;;10.80;21.20;;;;;;5106383;28;20506;-59
2021/10/14 07:31:57;;;;;;;8.73;7.83;;;11.30;20.20;;;;;;5104453;28;20440;-59
2021/10/14 07:34:23;;;;;;;8.50;7.53;;;10.90;21.10;;;;;;5110670;28;20451;-59
2021/10/14 07:36:49;;;;;;;9.17;7.27;;;11.40;21.40;;;;;;5108564;28;20194;-58
2021/10/14 07:39:14;;;;;;;12.00;7.43;;;11.10;18.50;;;;;;5095140;28;20187;-60
2021/10/14 07:41:40;;;;;;;8.53;6.70;;;11.10;14.10;;;;;;5103443;28;20190;-60
2021/10/14 07:44:06;;;;;;;11.17;7.37;;;11.20;10.90;;;;;;5095035;28;20233;-61
2021/10/14 07:46:32;;;;;;;8.77;7.93;;;11.20;4.50;;;;;;5090999;28;20199;-59
2021/10/14 07:48:57;;;;;;;9.40;8.27;;;11.10;4.60;;;;;;5100204;28;20469;-59
2021/10/14 07:51:23;;;;;;;7.90;7.03;;;11.10;7.60;;;;;;5088718;28;20958;-59
2021/10/14 07:53:48;;;;;;;8.37;7.20;;;11.00;13.60;;;;;;5100439;28;20601;-59
2021/10/14 07:56:14;;;;;;;8.37;6.87;;;11.10;15.90;;;;;;5107818;28;20200;-60
2021/10/14 07:58:40;;;;;;;9.20;7.50;;;11.20;18.70;;;;;;5056161;28;20179;-59
2021/10/14 08:01:10;;;;;;;11.60;8.10;;;11.30;14.20;;;;;;5095825;28;20548;-59
2021/10/14 08:03:37;;;;;;;8.40;7.50;;;11.40;10.50;;;;;;5093107;28;20213;-60
2021/10/14 08:06:02;;;;;;;8.30;7.43;;;11.50;8.40;;;;;;5093835;28;20440;-60
2021/10/14 08:08:28;;;;;;;8.30;7.50;;;11.50;3.00;;;;;;5091292;28;20456;-62
2021/10/14 08:10:54;;;;;;;11.03;9.40;;;11.50;1.00;;;;;;5081342;28;20304;-59
2021/10/14 08:13:19;;;;;;;8.83;7.90;;;11.40;6.10;;;;;;5110920;28;20215;-60
2021/10/14 08:15:52;;;;;;;7.43;6.80;;;11.50;3.00;;;;;;5107406;28;20852;-59
2021/10/14 08:18:20;;;;;;;7.90;7.10;;;11.60;7.40;;;;;;5094813;28;20195;-60
2021/10/14 08:20:46;;;;;;;7.70;6.80;;;11.60;8.70;;;;;;5110630;28;20475;-58
2021/10/14 08:23:12;;;;;;;4.63;4.27;;;11.70;8.40;;;;;;5110132;28;20521;-59
2021/10/14 08:25:37;;;;;;;4.67;4.00;;;11.80;1.50;;;;;;5100461;28;20469;-61
2021/10/14 08:28:03;;;;;;;5.23;3.20;;;12.00;1.00;;;;;;5090452;28;20209;-60
2021/10/14 08:30:29;;;;;;;3.07;2.77;;;12.00;1.00;;;;;;5098182;28;20186;-59
2021/10/14 08:32:54;;;;;;;2.60;2.40;;;12.10;1.00;;;;;;5095794;28;20544;-59
2021/10/14 08:35:21;;;;;;;2.60;2.20;;;12.20;1.00;;;;;;5089622;28;20183;-59
2021/10/14 08:37:47;;;;;;;2.40;2.20;;;12.20;1.00;;;;;;5102002;28;20197;-61
2021/10/14 08:40:14;;;;;;;3.73;2.63;;;12.20;1.00;;;;;;5094681;28;20424;-60
2021/10/14 08:42:40;;;;;;;2.87;2.63;;;12.20;1.00;;;;;;5096920;28;20460;-60
2021/10/14 08:45:07;;;;;;;5.10;3.17;;;12.10;1.00;;;;;;5098347;28;20858;-60
2021/10/14 08:47:33;;;;;;;8.03;3.43;;;12.00;1.00;;;;;;5108605;28;20979;-61
2021/10/14 08:49:59;;;;;;;2.70;2.37;;;12.20;1.00;;;;;;5108780;28;20441;-60
2021/10/14 08:52:26;;;;;;;2.67;2.47;;;12.20;1.00;;;;;;5096811;28;20452;-60
2021/10/14 08:54:52;;;;;;;2.40;2.20;;;12.30;1.00;;;;;;5101520;28;20486;-61
2021/10/14 08:57:17;;;;;;;2.93;2.63;;;12.20;1.00;;;;;;5094946;28;20464;-61
2021/10/14 08:59:43;;;;;;;3.20;2.80;;;12.30;1.00;;;;;;5101899;28;20983;-61
2021/10/14 09:02:09;;;;;;;2.53;2.33;;;12.40;1.00;;;;;;5085480;28;20187;-60
2021/10/14 09:04:57;;;;;;;2.97;2.40;;;12.40;1.00;;;;;;5097921;28;20198;-60
2021/10/14 09:07:28;;;;;;;3.70;2.50;;;12.30;1.00;;;;;;5097449;28;20875;-61
2021/10/14 09:09:57;;;;;;;2.60;2.40;;;12.30;1.00;;;;;;5105769;28;20444;-60
2021/10/14 09:12:23;;;;;;;4.10;2.73;;;12.10;1.00;;;;;;5110561;28;20863;-61
2021/10/14 09:15:03;;;;;;;2.43;2.23;;;12.20;1.00;;;;;;5099239;28;20441;-58
2021/10/14 09:17:37;;;;;;;2.30;2.10;;;12.30;1.00;;;;;;5096329;28;20186;-58
2021/10/14 09:20:25;;;;;;;3.47;2.13;;;12.40;1.00;;;;;;5102963;28;20916;-58
2021/10/14 09:23:04;;;;;;;4.10;2.70;;;12.40;1.00;;;;;;5102174;28;20484;-61
2021/10/14 09:25:42;;;;;;;2.93;2.30;;;12.40;1.00;;;;;;5094233;28;20449;-61
2021/10/14 09:28:23;;;;;;;4.03;2.40;;;12.30;1.00;;;;;;5098656;28;20461;-60
2021/10/14 09:31:00;;;;;;;2.83;2.63;;;12.40;1.00;;;;;;5101382;28;20414;-60
2021/10/14 09:33:37;;;;;;;2.90;2.70;;;12.30;1.00;;;;;;5095234;28;20534;-60
2021/10/14 09:36:32;;;;;;;5.23;3.27;;;12.40;1.00;;;;;;5103030;28;20551;-58
2021/10/14 09:39:03;;;;;;;2.80;2.60;;;12.40;1.00;;;;;;5078434;28;20437;-59
2021/10/14 09:41:39;;;;;;;3.50;3.20;;;12.50;1.00;;;;;;5093985;28;20930;-58
2021/10/14 09:44:06;;;;;;;3.80;3.50;;;12.40;1.00;;;;;;5099384;28;21072;-61
2021/10/14 09:46:44;;;;;;;3.60;3.07;;;12.50;1.00;;;;;;5080855;28;20465;-59
2021/10/14 09:49:12;;;;;;;4.20;3.33;;;12.50;1.00;;;;;;5105426;28;20484;-60
2021/10/14 09:51:40;;;;;;;3.83;3.43;;;12.50;1.00;;;;;;5102409;28;20432;-59
2021/10/14 09:54:06;;;;;;;5.70;3.90;;;12.40;1.00;;;;;;5092100;28;20573;-58
2021/10/14 09:56:35;;;;;;;4.20;3.80;;;12.30;1.00;;;;;;5099774;28;20749;-59
2021/10/14 09:59:03;;;;;;;4.40;3.63;;;12.30;1.00;;;;;;5105029;28;20186;-60
2021/10/14 10:01:35;;;;;;;5.27;4.80;;;12.20;1.00;;;;;;5098444;28;20488;-59
2021/10/14 10:04:02;;;;;;;5.03;4.53;;;12.30;1.00;;;;;;5099946;28;20441;-59
2021/10/14 10:06:30;;;;;;;4.70;4.30;;;12.40;1.00;;;;;;5103834;28;21011;-59
2021/10/14 10:08:59;;;;;;;5.33;4.90;;;12.40;1.00;;;;;;5102590;28;20953;-61
2021/10/14 10:11:26;;;;;;;5.07;4.57;;;12.60;1.00;;;;;;5107923;28;20792;-60
2021/10/14 10:13:55;;;;;;;4.70;4.30;;;12.40;1.00;;;;;;5105337;28;20942;-59
2021/10/14 10:16:25;;;;;;;6.57;4.77;;;12.40;1.00;;;;;;5101047;28;20419;-60
2021/10/14 10:18:52;;;;;;;5.80;4.73;;;12.50;1.00;;;;;;5099515;28;20434;-60
2021/10/14 10:21:29;;;;;;;4.87;4.47;;;12.60;1.00;;;;;;5109527;28;20414;-60
2021/10/14 10:23:59;;;;;;;4.60;4.20;;;12.60;1.00;;;;;;5101459;28;20447;-59
2021/10/14 10:26:36;;;;;;;5.30;4.40;;;12.60;1.00;;;;;;5106538;28;20905;-60
2021/10/14 10:29:16;;;;;;;5.97;5.17;;;12.80;1.00;;;;;;5111361;28;20428;-60
2021/10/14 10:31:55;;;;;;;6.93;4.30;;;12.70;1.00;;;;;;5103610;28;20524;-60
2021/10/14 10:37:27;;;;;;;3.70;3.40;;;12.70;1.00;;;;;;5108839;28;20436;-60
2021/10/14 10:40:09;;;;;;;5.63;5.10;;;12.90;1.00;;;;;;5112870;28;20596;-58
2021/10/14 10:42:56;;;;;;;4.17;3.77;;;13.00;1.00;;;;;;5093049;28;20450;-59
2021/10/14 10:45:24;;;;;;;3.93;3.53;;;13.00;1.00;;;;;;5076717;28;20480;-59
2021/10/14 10:47:56;;;;;;;4.67;4.03;;;13.00;1.00;;;;;;5101685;28;20460;-60
2021/10/14 10:50:28;;;;;;;5.53;4.60;;;12.80;1.00;;;;;;5093622;28;20444;-60
2021/10/14 10:53:13;;;;;;;4.70;4.30;;;12.90;1.00;;;;;;5094597;28;20441;-59
2021/10/14 10:55:41;;;;;;;4.60;3.73;;;12.90;1.00;;;;;;5099649;28;20468;-59
2021/10/14 10:58:09;;;;;;;5.30;3.60;;;12.80;1.00;;;;;;5092506;28;20513;-60
2021/10/14 11:00:37;;;;;;;3.77;3.50;;;12.80;1.00;;;;;;5098448;28;20610;-59
2021/10/14 11:03:15;;;;;;;3.70;3.40;;;12.80;1.00;;;;;;5105575;28;20448;-60
2021/10/14 11:05:45;;;;;;;5.57;3.60;;;12.80;1.00;;;;;;5095891;28;20480;-60
2021/10/14 11:08:19;;;;;;;3.10;2.90;;;12.90;1.00;;;;;;5106141;28;20806;-59
2021/10/14 11:10:46;;;;;;;3.33;3.03;;;13.00;1.00;;;;;;5094371;28;20519;-59
2021/10/14 11:13:12;;;;;;;3.47;3.17;;;13.10;1.00;;;;;;5096185;28;20441;-59
2021/10/14 11:15:37;;;;;;;5.07;3.37;;;13.10;1.00;;;;;;5111347;28;20414;-60
2021/10/14 11:18:07;;;;;;;2.90;2.70;;;13.00;1.00;;;;;;5111295;28;20269;-60
2021/10/14 11:20:34;;;;;;;4.50;3.63;;;13.00;1.00;;;;;;5110735;28;20556;-60
2021/10/14 11:23:05;;;;;;;2.70;2.50;;;13.00;1.00;;;;;;5090563;28;20436;-59
2021/10/14 11:25:31;;;;;;;2.50;2.30;;;13.00;1.00;;;;;;5097460;28;20948;-60
2021/10/14 11:28:14;;;;;;;6.20;5.30;;;13.00;1.00;;;;;;5105236;28;20464;-60
2021/10/14 11:30:45;;;;;;;6.13;4.27;;;13.10;1.00;;;;;;5096605;28;20984;-61
2021/10/14 11:33:35;;;;;;;2.50;2.30;;;13.00;1.00;;;;;;5099503;28;20410;-61
2021/10/14 11:36:05;;;;;;;2.70;2.50;;;13.10;1.00;;;;;;5096296;28;20455;-60
2021/10/14 11:38:32;;;;;;;2.80;2.60;;;13.10;1.00;;;;;;5110839;28;20464;-59
2021/10/14 11:40:59;;;;;;;3.47;3.27;;;13.00;1.00;;;;;;5092759;28;20534;-61
2021/10/14 11:43:30;;;;;;;3.93;2.73;;;13.10;1.00;;;;;;5102423;28;20630;-60
2021/10/14 11:45:58;;;;;;;2.47;2.13;;;13.20;1.00;;;;;;5106948;28;20472;-59
2021/10/14 11:48:42;;;;;;;3.90;2.60;;;13.30;1.00;;;;;;5100181;28;20910;-59
2021/10/14 11:51:10;;;;;;;4.53;3.37;;;13.10;1.00;;;;;;5092079;28;20437;-59
2021/10/14 11:53:38;;;;;;;3.03;2.70;;;13.00;1.00;;;;;;5096824;28;20449;-60
2021/10/14 11:56:06;;;;;;;5.90;3.77;;;13.00;1.00;;;;;;5095970;28;20433;-60
2021/10/14 11:58:35;;;;;;;3.17;2.87;;;13.00;1.00;;;;;;5101225;28;20492;-59
2021/10/14 12:01:09;;;;;;;3.43;2.57;;;13.20;1.00;;;;;;5103767;28;20441;-60
2021/10/14 12:03:37;;;;;;;4.57;1.90;;;13.20;1.00;;;;;;5107326;28;20547;-60
2021/10/14 12:06:03;;;;;;;4.87;4.40;;;13.30;1.00;;;;;;5110640;28;20502;-61
2021/10/14 12:08:29;;;;;;;2.83;2.50;;;13.40;1.00;;;;;;5101345;28;20456;-60
2021/10/14 12:10:55;;;;;;;3.33;1.67;;;13.50;1.00;;;;;;5097543;28;20583;-60
2021/10/14 12:13:29;;;;;;;1.57;1.47;;;13.60;1.00;;;;;;5091743;28;21032;-59
2021/10/14 12:16:11;;;;;;;1.20;1.03;;;13.60;1.00;;;;;;5094509;28;20308;-58
2021/10/14 12:18:36;;;;;;;3.03;2.40;;;13.60;1.00;;;;;;5104763;28;20494;-58
2021/10/14 12:21:05;;;;;;;1.57;0.90;;;13.60;1.00;;;;;;5093332;28;20561;-59
2021/10/14 12:23:32;;;;;;;0.90;0.90;;;13.60;1.00;;;;;;5095096;28;20506;-59
2021/10/14 12:26:14;;;;;;;1.70;0.70;;;13.70;1.00;;;;;;5091036;28;20444;-58
2021/10/14 12:28:44;;;;;;;1.50;1.40;;;13.50;1.00;;;;;;5095335;28;20454;-58
2021/10/14 12:31:12;;;;;;;1.53;0.97;;;13.50;1.00;;;;;;5093427;28;20430;-59
2021/10/14 12:33:38;;;;;;;1.10;1.00;;;13.40;1.00;;;;;;5099959;28;20447;-59
2021/10/14 12:36:04;;;;;;;1.40;1.30;;;13.30;1.00;;;;;;5110237;28;20491;-59
2021/10/14 12:38:40;;;;;;;1.60;1.40;;;13.20;1.00;;;;;;5109213;28;20473;-59
2021/10/14 12:41:15;;;;;;;1.53;1.33;;;13.10;1.00;;;;;;5095618;28;20180;-59
2021/10/14 12:43:47;;;;;;;2.57;1.70;;;13.00;6.40;;;;;;5100859;28;20510;-59
2021/10/14 12:46:52;;;;;;;3.57;2.07;;;13.10;8.60;;;;;;5101470;28;20436;-58
2021/10/14 12:49:22;;;;;;;3.20;2.20;;;13.20;4.00;;;;;;5107038;28;20439;-57
2021/10/14 12:51:51;;;;;;;9.97;4.50;;;13.20;7.30;;;;;;5093987;28;20450;-58
2021/10/14 12:54:22;;;;;;;5.83;5.00;;;13.30;1.00;;;;;;5096584;28;20443;-59
2021/10/14 12:56:50;;;;;;;6.33;5.27;;;13.20;1.00;;;;;;5109005;28;20440;-59
2021/10/14 12:59:17;;;;;;;6.37;5.70;;;13.20;1.00;;;;;;5109341;28;20440;-59
2021/10/14 13:01:48;;;;;;;6.67;5.80;;;13.20;1.00;;;;;;5091356;28;20500;-58
2021/10/14 13:04:14;;;;;;;7.87;6.47;;;13.20;1.00;;;;;;5096423;28;20945;-58
2021/10/14 13:06:40;;;;;;;8.80;7.80;;;13.30;1.00;;;;;;5092356;28;20443;-57